Time;durP1;ratioP1;P1;durP2;ratioP2;P2;SDS_P1;SDS_P2;PMS_P1;PMS_P2;Temp;Humidity;BMP_temperature;BMP_pressure;BME280_temperature;BME280_humidity;BME280_pressure;Samples;Min_cycle;Max_cycle;Signal;HPM_P1;HPM_P2
2021/12/28 00:00:09;;;;;;;7.82;4.63;;;;;;;;;;5098159;28;20030;-47
2021/12/28 00:02:35;;;;;;;7.65;4.90;;;;;;;;;;5088112;28;20032;-48
2021/12/28 00:05:02;;;;;;;9.55;5.63;;;;;;;;;;5087197;28;20499;-46
2021/12/28 00:07:28;;;;;;;10.40;6.07;;;;;;;;;;5087306;28;20042;-47
2021/12/28 00:09:54;;;;;;;10.57;6.78;;;;;;;;;;5095779;28;20032;-47
2021/12/28 00:12:20;;;;;;;8.95;5.78;;;;;;;;;;5107607;28;20051;-46
2021/12/28 00:15:02;;;;;;;12.48;6.10;;;;;;;;;;5107883;28;20024;-49
2021/12/28 00:20:13;;;;;;;9.25;5.90;;;;;;;;;;5096529;28;20536;-45
2021/12/28 00:22:40;;;;;;;10.32;6.10;;;;;;;;;;5105880;28;20032;-46
2021/12/28 00:25:06;;;;;;;10.13;6.80;;;;;;;;;;5104557;28;20055;-46
2021/12/28 00:27:32;;;;;;;12.02;6.78;;;;;;;;;;5105915;28;20054;-48
2021/12/28 00:29:58;;;;;;;10.75;5.60;;;;;;;;;;5105778;28;20081;-47
2021/12/28 00:32:24;;;;;;;11.63;6.35;;;;;;;;;;5105207;28;20020;-47
2021/12/28 00:34:51;;;;;;;9.27;5.45;;;;;;;;;;5094940;28;20402;-47
2021/12/28 00:37:18;;;;;;;8.65;5.78;;;;;;;;;;5085088;28;20024;-46
2021/12/28 00:39:45;;;;;;;10.13;6.30;;;;;;;;;;5085550;28;20024;-47
2021/12/28 00:42:13;;;;;;;7.82;5.10;;;;;;;;;;5085046;28;20039;-46
2021/12/28 00:44:39;;;;;;;9.27;5.40;;;;;;;;;;5084648;28;20016;-46
2021/12/28 00:47:05;;;;;;;9.85;5.80;;;;;;;;;;5085964;28;20324;-48
2021/12/28 00:49:32;;;;;;;10.18;6.00;;;;;;;;;;5085988;28;20511;-47
2021/12/28 00:51:58;;;;;;;8.32;6.28;;;;;;;;;;5084779;28;20494;-46
2021/12/28 00:54:24;;;;;;;10.77;5.93;;;;;;;;;;5105151;28;20019;-49
2021/12/28 00:56:51;;;;;;;10.93;5.82;;;;;;;;;;5105403;28;20625;-46
2021/12/28 00:59:17;;;;;;;8.00;5.40;;;;;;;;;;5102870;28;20165;-48
2021/12/28 01:01:44;;;;;;;11.85;6.30;;;;;;;;;;5105096;28;20103;-47
2021/12/28 01:04:10;;;;;;;13.48;5.40;;;;;;;;;;5101746;28;20024;-47
2021/12/28 01:06:36;;;;;;;8.57;4.82;;;;;;;;;;5106009;28;20333;-46
2021/12/28 01:09:03;;;;;;;6.78;4.53;;;;;;;;;;5102496;28;20407;-46
2021/12/28 01:11:29;;;;;;;8.27;4.40;;;;;;;;;;5104646;28;20367;-47
2021/12/28 01:13:55;;;;;;;7.53;3.72;;;;;;;;;;5105233;28;20023;-46
2021/12/28 01:16:21;;;;;;;7.22;4.03;;;;;;;;;;5104738;28;20032;-46
2021/12/28 01:18:47;;;;;;;5.60;3.75;;;;;;;;;;5103504;28;20015;-46
2021/12/28 01:21:14;;;;;;;7.13;3.55;;;;;;;;;;5103375;28;20035;-46
2021/12/28 01:23:40;;;;;;;6.90;2.85;;;;;;;;;;5097495;28;20031;-47
2021/12/28 01:26:07;;;;;;;8.05;3.60;;;;;;;;;;5085514;28;20028;-47
2021/12/28 01:28:33;;;;;;;8.35;3.00;;;;;;;;;;5083679;28;20099;-46
2021/12/28 01:30:59;;;;;;;10.45;3.30;;;;;;;;;;5084732;28;20039;-46
2021/12/28 01:33:26;;;;;;;7.57;2.95;;;;;;;;;;5089415;28;20024;-46
2021/12/28 01:35:54;;;;;;;4.47;2.70;;;;;;;;;;5085891;28;20532;-47
2021/12/28 01:38:20;;;;;;;3.60;2.40;;;;;;;;;;5082891;28;20020;-47
2021/12/28 01:40:46;;;;;;;4.13;2.17;;;;;;;;;;5073849;28;20112;-51
2021/12/28 01:43:12;;;;;;;5.25;1.90;;;;;;;;;;5094586;28;20511;-48
2021/12/28 01:45:46;;;;;;;5.43;2.28;;;;;;;;;;5064788;28;20436;-47
2021/12/28 01:48:14;;;;;;;7.82;2.10;;;;;;;;;;5064014;28;20039;-50
2021/12/28 01:50:40;;;;;;;3.92;2.10;;;;;;;;;;5101269;28;20032;-47
2021/12/28 01:53:07;;;;;;;2.80;2.13;;;;;;;;;;5104897;28;20024;-49
2021/12/28 01:55:35;;;;;;;4.22;2.15;;;;;;;;;;5104760;28;20030;-48
2021/12/28 01:58:02;;;;;;;3.65;2.10;;;;;;;;;;5103342;28;20036;-47
2021/12/28 02:00:28;;;;;;;4.93;1.90;;;;;;;;;;5084966;28;20119;-47
2021/12/28 02:02:55;;;;;;;1.92;1.63;;;;;;;;;;5095174;28;20023;-46
2021/12/28 02:05:21;;;;;;;1.88;1.48;;;;;;;;;;5103888;28;20028;-46
2021/12/28 02:07:47;;;;;;;4.00;1.83;;;;;;;;;;5104410;28;20119;-48
2021/12/28 02:10:13;;;;;;;3.30;1.67;;;;;;;;;;5104210;28;20027;-46
2021/12/28 02:12:39;;;;;;;3.40;1.83;;;;;;;;;;5092042;28;20024;-46
2021/12/28 02:15:12;;;;;;;3.60;2.03;;;;;;;;;;5084161;28;20051;-47
2021/12/28 02:17:38;;;;;;;4.72;1.80;;;;;;;;;;5083502;28;20080;-46
2021/12/28 02:20:14;;;;;;;3.83;1.73;;;;;;;;;;5084166;28;20055;-47
2021/12/28 02:22:40;;;;;;;2.97;2.35;;;;;;;;;;5098052;28;20502;-46
2021/12/28 02:25:07;;;;;;;4.43;1.60;;;;;;;;;;5105098;28;20742;-46
2021/12/28 02:27:34;;;;;;;2.75;1.30;;;;;;;;;;5104366;28;20091;-45
2021/12/28 02:30:00;;;;;;;6.25;1.80;;;;;;;;;;5104536;28;20053;-46
2021/12/28 02:32:27;;;;;;;2.72;1.48;;;;;;;;;;5102521;28;20024;-45
2021/12/28 02:34:55;;;;;;;3.80;1.50;;;;;;;;;;5103990;28;20020;-47
2021/12/28 02:37:21;;;;;;;2.92;1.70;;;;;;;;;;5104229;28;20031;-47
2021/12/28 02:39:47;;;;;;;5.68;1.63;;;;;;;;;;5104162;28;20031;-48
2021/12/28 02:42:15;;;;;;;4.43;1.65;;;;;;;;;;5092210;28;20103;-46
2021/12/28 02:44:41;;;;;;;3.45;1.42;;;;;;;;;;5084130;28;20032;-47
2021/12/28 02:47:07;;;;;;;3.88;1.60;;;;;;;;;;5087648;28;20338;-46
2021/12/28 02:49:36;;;;;;;4.22;1.80;;;;;;;;;;5087186;28;20106;-47
2021/12/28 02:52:03;;;;;;;6.30;1.52;;;;;;;;;;5093760;28;20031;-48
2021/12/28 02:54:29;;;;;;;5.68;2.38;;;;;;;;;;5107306;28;20513;-46
2021/12/28 02:56:55;;;;;;;3.83;1.52;;;;;;;;;;5107675;28;20514;-50
2021/12/28 02:59:22;;;;;;;5.97;2.00;;;;;;;;;;5107637;28;20101;-48
2021/12/28 03:01:48;;;;;;;3.05;1.40;;;;;;;;;;5098070;28;20036;-47
2021/12/28 03:04:15;;;;;;;5.38;1.80;;;;;;;;;;5086559;28;20035;-46
2021/12/28 03:06:41;;;;;;;6.38;1.73;;;;;;;;;;5087674;28;20119;-45
2021/12/28 03:09:07;;;;;;;6.13;1.85;;;;;;;;;;5087458;28;20123;-50
2021/12/28 03:11:33;;;;;;;4.47;2.40;;;;;;;;;;5088147;28;20042;-46
2021/12/28 03:14:01;;;;;;;5.50;1.48;;;;;;;;;;5106974;28;20020;-46
2021/12/28 03:16:29;;;;;;;5.10;1.85;;;;;;;;;;5107163;28;20971;-46
2021/12/28 03:18:55;;;;;;;4.97;1.50;;;;;;;;;;5107353;28;20490;-47
2021/12/28 03:21:21;;;;;;;4.00;1.48;;;;;;;;;;5106722;28;20509;-46
2021/12/28 03:23:48;;;;;;;3.33;1.52;;;;;;;;;;5086912;28;20501;-47
2021/12/28 03:26:14;;;;;;;3.10;1.73;;;;;;;;;;5086456;28;20066;-46
2021/12/28 03:28:41;;;;;;;4.07;1.58;;;;;;;;;;5087466;28;20028;-46
2021/12/28 03:31:09;;;;;;;7.30;1.98;;;;;;;;;;5087152;28;20028;-46
2021/12/28 03:33:36;;;;;;;4.45;1.80;;;;;;;;;;5085232;28;20109;-46
2021/12/28 03:36:03;;;;;;;4.88;1.90;;;;;;;;;;5086586;28;20032;-48
2021/12/28 03:38:29;;;;;;;8.10;2.13;;;;;;;;;;5086528;28;20026;-46
2021/12/28 03:40:55;;;;;;;4.63;2.08;;;;;;;;;;5086689;28;20092;-47
2021/12/28 03:43:21;;;;;;;7.32;2.17;;;;;;;;;;5099432;28;20035;-46
2021/12/28 03:45:49;;;;;;;4.47;1.60;;;;;;;;;;5107221;28;20111;-47
2021/12/28 03:48:16;;;;;;;5.57;2.10;;;;;;;;;;5106925;28;20667;-47
2021/12/28 03:50:42;;;;;;;4.10;2.17;;;;;;;;;;5106670;28;20027;-46
2021/12/28 03:53:09;;;;;;;9.25;2.70;;;;;;;;;;5086854;28;20036;-48
2021/12/28 03:55:36;;;;;;;6.25;2.17;;;;;;;;;;5086451;28;20016;-46
2021/12/28 03:58:03;;;;;;;5.05;2.40;;;;;;;;;;5086158;28;20032;-46
2021/12/28 04:00:31;;;;;;;5.78;2.15;;;;;;;;;;5085001;28;20028;-47
2021/12/28 04:02:57;;;;;;;5.72;2.08;;;;;;;;;;5085339;28;20036;-46
2021/12/28 04:05:24;;;;;;;5.68;2.38;;;;;;;;;;5089680;28;20623;-47
2021/12/28 04:07:50;;;;;;;5.28;2.35;;;;;;;;;;5106509;28;20430;-46
2021/12/28 04:10:18;;;;;;;6.93;2.67;;;;;;;;;;5106320;28;20027;-48
2021/12/28 04:12:45;;;;;;;8.77;2.70;;;;;;;;;;5104746;28;20405;-49
2021/12/28 04:15:14;;;;;;;10.50;3.55;;;;;;;;;;5106433;28;20103;-47
2021/12/28 04:17:40;;;;;;;5.63;2.60;;;;;;;;;;5107224;28;20031;-46
2021/12/28 04:20:09;;;;;;;5.20;2.70;;;;;;;;;;5106905;28;20051;-46
2021/12/28 04:22:35;;;;;;;7.47;2.45;;;;;;;;;;5104762;28;20041;-50
2021/12/28 04:25:01;;;;;;;5.80;2.35;;;;;;;;;;5105752;28;20591;-47
2021/12/28 04:27:27;;;;;;;7.55;2.58;;;;;;;;;;5105967;28;20135;-46
2021/12/28 04:29:53;;;;;;;9.13;3.33;;;;;;;;;;5106151;28;20102;-47
2021/12/28 04:32:19;;;;;;;5.13;2.95;;;;;;;;;;5087231;28;20100;-46
2021/12/28 04:34:47;;;;;;;5.07;2.88;;;;;;;;;;5098731;28;20019;-46
2021/12/28 04:37:13;;;;;;;5.85;2.65;;;;;;;;;;5105810;28;20024;-45
2021/12/28 04:39:39;;;;;;;7.57;3.33;;;;;;;;;;5106401;28;20095;-47
2021/12/28 04:42:05;;;;;;;6.10;2.58;;;;;;;;;;5103833;28;20050;-49
2021/12/28 04:44:31;;;;;;;8.10;3.10;;;;;;;;;;5105609;28;20517;-47
2021/12/28 04:46:58;;;;;;;8.80;3.38;;;;;;;;;;5105879;28;20106;-49
2021/12/28 04:49:25;;;;;;;6.70;2.35;;;;;;;;;;5105285;28;20030;-49
2021/12/28 04:51:51;;;;;;;7.90;3.08;;;;;;;;;;5104188;28;20043;-47
2021/12/28 04:54:19;;;;;;;5.72;2.10;;;;;;;;;;5105118;28;20024;-50
2021/12/28 04:56:45;;;;;;;7.82;2.60;;;;;;;;;;5105640;28;20502;-47
2021/12/28 04:59:12;;;;;;;4.15;2.17;;;;;;;;;;5105336;28;20359;-47
2021/12/28 05:01:38;;;;;;;5.65;2.60;;;;;;;;;;5065744;28;20502;-47
2021/12/28 05:04:05;;;;;;;7.80;2.33;;;;;;;;;;5083143;28;20462;-49
2021/12/28 05:06:31;;;;;;;6.35;2.63;;;;;;;;;;5084696;28;20042;-47
2021/12/28 05:08:57;;;;;;;4.70;2.00;;;;;;;;;;5084172;28;20036;-47
2021/12/28 05:11:23;;;;;;;5.45;2.40;;;;;;;;;;5083669;28;20047;-45
2021/12/28 05:13:49;;;;;;;5.57;2.70;;;;;;;;;;5098651;28;20024;-45
2021/12/28 05:16:16;;;;;;;6.43;2.60;;;;;;;;;;5104742;28;20031;-47
2021/12/28 05:18:43;;;;;;;9.18;2.95;;;;;;;;;;5105349;28;20034;-47
2021/12/28 05:21:09;;;;;;;6.28;2.75;;;;;;;;;;5104326;28;20173;-46
2021/12/28 05:23:35;;;;;;;5.25;2.45;;;;;;;;;;5101018;28;20060;-46
2021/12/28 05:26:01;;;;;;;9.70;2.67;;;;;;;;;;5105389;28;20031;-45
2021/12/28 05:28:27;;;;;;;6.85;2.80;;;;;;;;;;5105122;28;20180;-48
2021/12/28 05:30:54;;;;;;;7.68;2.72;;;;;;;;;;5105013;28;20032;-47
2021/12/28 05:33:21;;;;;;;7.00;2.72;;;;;;;;;;5104705;28;20012;-46
2021/12/28 05:35:47;;;;;;;5.88;2.25;;;;;;;;;;5082778;28;20024;-45
2021/12/28 05:38:13;;;;;;;6.20;2.70;;;;;;;;;;5085046;28;20081;-46
2021/12/28 05:40:40;;;;;;;5.72;2.90;;;;;;;;;;5084744;28;20624;-48
2021/12/28 05:43:06;;;;;;;6.68;2.90;;;;;;;;;;5085086;28;20031;-48
2021/12/28 05:45:32;;;;;;;5.10;2.65;;;;;;;;;;5100457;28;20043;-46
2021/12/28 05:47:58;;;;;;;4.13;2.63;;;;;;;;;;5104714;28;20039;-47
2021/12/28 05:50:24;;;;;;;5.45;2.22;;;;;;;;;;5101635;28;20379;-46
2021/12/28 05:52:50;;;;;;;4.15;2.47;;;;;;;;;;5084050;28;20035;-47
2021/12/28 05:55:16;;;;;;;4.18;2.80;;;;;;;;;;5097701;28;20020;-47
2021/12/28 05:57:42;;;;;;;8.35;2.88;;;;;;;;;;5103526;28;20031;-46
2021/12/28 06:00:09;;;;;;;4.32;2.40;;;;;;;;;;5104825;28;20035;-47
2021/12/28 06:02:35;;;;;;;7.78;2.78;;;;;;;;;;5104879;28;20063;-46
2021/12/28 06:05:01;;;;;;;7.97;3.00;;;;;;;;;;5072201;28;20437;-49
2021/12/28 06:07:27;;;;;;;4.72;2.42;;;;;;;;;;5083933;28;20110;-46
2021/12/28 06:09:55;;;;;;;6.88;2.90;;;;;;;;;;5084335;28;20027;-47
2021/12/28 06:12:21;;;;;;;7.50;3.00;;;;;;;;;;5086863;28;20028;-45
2021/12/28 06:14:47;;;;;;;4.05;2.63;;;;;;;;;;5091834;28;20074;-46
2021/12/28 06:17:14;;;;;;;6.32;2.78;;;;;;;;;;5083488;28;20024;-45
2021/12/28 06:19:40;;;;;;;6.43;2.67;;;;;;;;;;5085418;28;20020;-47
2021/12/28 06:22:06;;;;;;;5.82;2.63;;;;;;;;;;5088588;28;20024;-47
2021/12/28 06:24:32;;;;;;;6.38;2.33;;;;;;;;;;5086652;28;20105;-45
2021/12/28 06:26:59;;;;;;;7.28;2.40;;;;;;;;;;5088033;28;20038;-49
2021/12/28 06:29:25;;;;;;;13.77;2.88;;;;;;;;;;5087480;28;20050;-47
2021/12/28 06:31:51;;;;;;;7.93;3.20;;;;;;;;;;5100890;28;20119;-47
2021/12/28 06:34:17;;;;;;;7.90;2.88;;;;;;;;;;5103188;28;20028;-46
2021/12/28 06:36:43;;;;;;;7.45;2.78;;;;;;;;;;5087977;28;20074;-47
2021/12/28 06:39:10;;;;;;;6.60;2.60;;;;;;;;;;5087972;28;20518;-46
2021/12/28 06:41:36;;;;;;;6.88;2.47;;;;;;;;;;5088090;28;20098;-46
2021/12/28 06:44:02;;;;;;;4.32;2.35;;;;;;;;;;5100555;28;20474;-45
2021/12/28 06:46:28;;;;;;;4.75;2.67;;;;;;;;;;5087573;28;20028;-47
2021/12/28 06:48:54;;;;;;;5.38;2.67;;;;;;;;;;5087222;28;20063;-46
2021/12/28 06:51:20;;;;;;;3.30;2.05;;;;;;;;;;5087138;28;20209;-45
2021/12/28 06:53:47;;;;;;;6.07;2.70;;;;;;;;;;5087578;28;20065;-46
2021/12/28 06:56:13;;;;;;;3.90;2.60;;;;;;;;;;5085974;28;20028;-46
2021/12/28 06:58:40;;;;;;;5.75;2.33;;;;;;;;;;5087878;28;20032;-47
2021/12/28 07:01:07;;;;;;;6.75;2.78;;;;;;;;;;5087573;28;20479;-46
2021/12/28 07:03:33;;;;;;;6.97;2.63;;;;;;;;;;5094154;28;20470;-46
2021/12/28 07:05:59;;;;;;;4.47;2.00;;;;;;;;;;5091589;28;20111;-45
2021/12/28 07:08:25;;;;;;;7.45;2.28;;;;;;;;;;5086718;28;20032;-46
2021/12/28 07:10:52;;;;;;;6.97;2.55;;;;;;;;;;5098348;28;20036;-47
2021/12/28 07:13:18;;;;;;;3.22;2.00;;;;;;;;;;5108609;28;20390;-47
2021/12/28 07:15:45;;;;;;;4.93;2.20;;;;;;;;;;5104091;28;20038;-45
2021/12/28 07:18:11;;;;;;;7.53;2.50;;;;;;;;;;5089389;28;20020;-46
2021/12/28 07:20:37;;;;;;;3.25;2.17;;;;;;;;;;5099315;28;20525;-46
2021/12/28 07:23:03;;;;;;;5.68;2.85;;;;;;;;;;5108596;28;20057;-46
2021/12/28 07:25:29;;;;;;;4.20;2.33;;;;;;;;;;5105434;28;20036;-45
2021/12/28 07:27:55;;;;;;;9.15;3.10;;;;;;;;;;5099352;28;20080;-49
2021/12/28 07:30:21;;;;;;;5.55;2.50;;;;;;;;;;5085854;28;20142;-46
2021/12/28 07:32:47;;;;;;;7.20;2.35;;;;;;;;;;5086423;28;20062;-47
2021/12/28 07:35:14;;;;;;;4.50;2.33;;;;;;;;;;5088394;28;20368;-46
2021/12/28 07:37:40;;;;;;;5.50;2.10;;;;;;;;;;5093772;28;20024;-46
2021/12/28 07:40:07;;;;;;;6.45;2.47;;;;;;;;;;5084467;28;20016;-48
2021/12/28 07:42:35;;;;;;;5.40;3.05;;;;;;;;;;5087862;28;20031;-46
2021/12/28 07:45:01;;;;;;;8.82;3.58;;;;;;;;;;5087513;28;20020;-48
2021/12/28 07:47:27;;;;;;;5.60;3.92;;;;;;;;;;5087094;28;20028;-46
2021/12/28 07:49:54;;;;;;;6.90;2.90;;;;;;;;;;5086810;28;20050;-46
2021/12/28 07:52:20;;;;;;;6.53;2.30;;;;;;;;;;5092287;28;20722;-47
2021/12/28 07:54:46;;;;;;;4.72;2.35;;;;;;;;;;5086655;28;20020;-47
2021/12/28 07:57:12;;;;;;;6.00;1.95;;;;;;;;;;5087554;28;20549;-48
2021/12/28 07:59:38;;;;;;;3.85;1.85;;;;;;;;;;5087406;28;20360;-50
2021/12/28 08:02:04;;;;;;;7.55;2.15;;;;;;;;;;5084575;28;20032;-47
2021/12/28 08:04:30;;;;;;;5.75;2.05;;;;;;;;;;5085088;28;20028;-49
2021/12/28 08:06:56;;;;;;;5.80;2.60;;;;;;;;;;5094483;28;20092;-47
2021/12/28 08:09:23;;;;;;;3.55;1.98;;;;;;;;;;5082132;28;20036;-45
2021/12/28 08:11:50;;;;;;;3.50;1.92;;;;;;;;;;5091537;28;20044;-49
2021/12/28 08:14:18;;;;;;;4.75;2.15;;;;;;;;;;5093189;28;20067;-49
2021/12/28 08:16:44;;;;;;;5.18;2.55;;;;;;;;;;5074479;28;20024;-47
2021/12/28 08:19:10;;;;;;;4.13;2.10;;;;;;;;;;5083952;28;20089;-50
2021/12/28 08:21:37;;;;;;;3.17;2.10;;;;;;;;;;5080568;28;20114;-48
2021/12/28 08:24:03;;;;;;;6.35;2.42;;;;;;;;;;5078947;28;20039;-48
2021/12/28 08:26:29;;;;;;;3.92;1.70;;;;;;;;;;5096484;28;20411;-45
2021/12/28 08:28:55;;;;;;;3.97;2.22;;;;;;;;;;5080659;28;20024;-49
2021/12/28 08:31:21;;;;;;;4.82;2.50;;;;;;;;;;5096145;28;20509;-45
2021/12/28 08:33:47;;;;;;;2.83;2.05;;;;;;;;;;5102916;28;20020;-45
2021/12/28 08:36:13;;;;;;;4.15;2.10;;;;;;;;;;5107659;28;20448;-45
2021/12/28 08:38:41;;;;;;;4.63;2.03;;;;;;;;;;5092355;28;20035;-47
2021/12/28 08:41:07;;;;;;;6.45;3.90;;;;;;;;;;5068930;28;20414;-48
2021/12/28 08:43:33;;;;;;;5.22;3.38;;;;;;;;;;5098433;28;20074;-46
2021/12/28 08:46:00;;;;;;;7.97;3.50;;;;;;;;;;5098418;28;20028;-47
2021/12/28 08:48:26;;;;;;;6.45;4.80;;;;;;;;;;5087029;28;20055;-45
2021/12/28 08:50:52;;;;;;;9.73;5.10;;;;;;;;;;5086084;28;20197;-46
2021/12/28 08:53:18;;;;;;;14.40;8.52;;;;;;;;;;5095307;28;20426;-47
2021/12/28 08:55:44;;;;;;;8.98;5.53;;;;;;;;;;5103835;28;20399;-49
2021/12/28 08:58:10;;;;;;;10.15;5.05;;;;;;;;;;5088100;28;20028;-46
2021/12/28 09:00:37;;;;;;;5.47;3.60;;;;;;;;;;5084174;28;20408;-47
2021/12/28 09:03:04;;;;;;;5.70;3.55;;;;;;;;;;5089695;28;20031;-47
2021/12/28 09:05:31;;;;;;;8.35;3.88;;;;;;;;;;5084619;28;20661;-47
2021/12/28 09:07:57;;;;;;;5.32;3.75;;;;;;;;;;5084234;28;20566;-46
2021/12/28 09:10:27;;;;;;;6.53;3.40;;;;;;;;;;5082947;28;20028;-47
2021/12/28 09:12:55;;;;;;;5.13;3.00;;;;;;;;;;5084338;28;20052;-46
2021/12/28 09:15:21;;;;;;;3.97;2.90;;;;;;;;;;5082597;28;20024;-46
2021/12/28 09:17:47;;;;;;;4.07;2.95;;;;;;;;;;5080307;28;20089;-48
2021/12/28 09:20:16;;;;;;;3.30;2.28;;;;;;;;;;5080942;28;20452;-48
2021/12/28 09:22:42;;;;;;;3.75;1.80;;;;;;;;;;5083408;28;20036;-48
2021/12/28 09:25:08;;;;;;;3.70;2.08;;;;;;;;;;5083876;28;20029;-50
2021/12/28 09:27:35;;;;;;;4.88;2.22;;;;;;;;;;5083085;28;20415;-49
2021/12/28 09:30:01;;;;;;;3.00;1.63;;;;;;;;;;5082118;28;20039;-49
2021/12/28 09:32:27;;;;;;;2.17;1.40;;;;;;;;;;5075974;28;20031;-50
2021/12/28 09:34:54;;;;;;;5.35;1.52;;;;;;;;;;5083610;28;20395;-46
2021/12/28 09:37:20;;;;;;;3.55;1.33;;;;;;;;;;5079949;28;20463;-51
2021/12/28 09:39:47;;;;;;;5.80;1.75;;;;;;;;;;5064155;28;20476;-50
2021/12/28 09:42:13;;;;;;;4.25;1.63;;;;;;;;;;5080633;28;20152;-49
2021/12/28 09:44:39;;;;;;;4.13;1.45;;;;;;;;;;5081575;28;20582;-49
2021/12/28 09:47:07;;;;;;;3.13;1.55;;;;;;;;;;5081804;28;20853;-46
2021/12/28 09:49:34;;;;;;;2.95;1.70;;;;;;;;;;5082177;28;20055;-50
2021/12/28 09:52:02;;;;;;;5.30;1.85;;;;;;;;;;5062944;28;20043;-46
2021/12/28 09:54:29;;;;;;;6.05;1.85;;;;;;;;;;5081563;28;20017;-50
2021/12/28 09:56:56;;;;;;;4.30;2.40;;;;;;;;;;5085551;28;20077;-48
2021/12/28 09:59:23;;;;;;;7.38;2.70;;;;;;;;;;5085038;28;20035;-49
2021/12/28 10:01:49;;;;;;;3.97;1.90;;;;;;;;;;5085520;28;20440;-47
2021/12/28 10:04:16;;;;;;;4.72;2.25;;;;;;;;;;5086110;28;20040;-48
2021/12/28 10:06:43;;;;;;;3.55;2.00;;;;;;;;;;5085662;28;20028;-48
2021/12/28 10:09:09;;;;;;;3.55;2.10;;;;;;;;;;5086931;28;20028;-47
2021/12/28 10:11:37;;;;;;;5.18;2.15;;;;;;;;;;5086232;28;20583;-46
2021/12/28 10:14:17;;;;;;;4.38;2.00;;;;;;;;;;5086901;28;20024;-46
2021/12/28 10:16:51;;;;;;;6.10;2.15;;;;;;;;;;5088687;28;20111;-49
2021/12/28 10:19:17;;;;;;;;;;;;;;;;;;5085307;28;20028;-48
2021/12/28 10:21:43;;;;;;;6.03;2.75;;;;;;;;;;5081756;28;20346;-46
2021/12/28 10:24:09;;;;;;;4.50;1.75;;;;;;;;;;5086302;28;20115;-47
2021/12/28 10:26:35;;;;;;;5.80;2.63;;;;;;;;;;5090113;28;20448;-45
2021/12/28 10:29:02;;;;;;;5.43;2.40;;;;;;;;;;5085178;28;20438;-46
2021/12/28 10:31:28;;;;;;;5.35;2.58;;;;;;;;;;5086435;28;20115;-48
2021/12/28 10:33:56;;;;;;;6.43;2.80;;;;;;;;;;5084148;28;20032;-47
2021/12/28 10:36:30;;;;;;;5.97;2.80;;;;;;;;;;5084196;28;20027;-47
2021/12/28 10:38:56;;;;;;;8.32;3.22;;;;;;;;;;5083770;28;20523;-46
2021/12/28 10:41:22;;;;;;;7.47;3.25;;;;;;;;;;5082242;28;20036;-46
2021/12/28 10:43:54;;;;;;;5.93;3.90;;;;;;;;;;5082840;28;20103;-47
2021/12/28 10:46:21;;;;;;;5.47;3.35;;;;;;;;;;5081874;28;20119;-46
2021/12/28 10:48:50;;;;;;;6.50;3.45;;;;;;;;;;5082672;28;20400;-46
2021/12/28 10:51:20;;;;;;;6.05;3.40;;;;;;;;;;5085016;28;20067;-46
2021/12/28 10:53:59;;;;;;;6.13;2.95;;;;;;;;;;5085754;28;20020;-47
2021/12/28 10:56:26;;;;;;;5.90;2.60;;;;;;;;;;5085231;28;20058;-48
2021/12/28 10:58:53;;;;;;;9.07;2.70;;;;;;;;;;5082508;28;20028;-50
2021/12/28 11:01:23;;;;;;;4.90;2.65;;;;;;;;;;5086680;28;20020;-50
2021/12/28 11:03:52;;;;;;;3.97;2.03;;;;;;;;;;5089475;28;20040;-46
2021/12/28 11:06:19;;;;;;;5.00;2.20;;;;;;;;;;5067943;28;20043;-46
2021/12/28 11:08:47;;;;;;;9.93;2.55;;;;;;;;;;5046241;28;20032;-45
2021/12/28 11:11:14;;;;;;;5.60;2.65;;;;;;;;;;5039785;28;21548;-45
2021/12/28 11:13:41;;;;;;;5.10;2.42;;;;;;;;;;5040013;28;21156;-50
2021/12/28 11:16:08;;;;;;;7.40;2.97;;;;;;;;;;5043968;28;20515;-49
2021/12/28 11:18:40;;;;;;;5.80;2.92;;;;;;;;;;5041516;28;20487;-47
2021/12/28 11:21:17;;;;;;;5.72;2.63;;;;;;;;;;5073766;28;20154;-47
2021/12/28 11:23:45;;;;;;;3.15;2.65;;;;;;;;;;5083941;28;20074;-48
2021/12/28 11:26:14;;;;;;;6.18;3.28;;;;;;;;;;5086225;28;20020;-46
2021/12/28 11:28:42;;;;;;;6.53;3.08;;;;;;;;;;5086706;28;20110;-49
2021/12/28 11:31:16;;;;;;;4.63;2.60;;;;;;;;;;5086578;28;20028;-50
2021/12/28 11:33:49;;;;;;;6.15;3.65;;;;;;;;;;5086620;28;20036;-49
2021/12/28 11:36:17;;;;;;;4.15;2.95;;;;;;;;;;5082891;28;20031;-49
2021/12/28 11:38:43;;;;;;;2.97;2.22;;;;;;;;;;5086330;28;20028;-48
2021/12/28 11:41:09;;;;;;;5.15;2.33;;;;;;;;;;5086534;28;20024;-49
2021/12/28 11:43:37;;;;;;;3.88;2.08;;;;;;;;;;5087093;28;20491;-47
2021/12/28 11:46:04;;;;;;;5.43;2.05;;;;;;;;;;5087514;28;20024;-48
2021/12/28 11:48:31;;;;;;;3.65;1.52;;;;;;;;;;5086129;28;20030;-47
2021/12/28 11:50:58;;;;;;;2.03;1.42;;;;;;;;;;5086679;28;20028;-48
2021/12/28 11:53:26;;;;;;;2.25;1.60;;;;;;;;;;5085675;28;20502;-46
2021/12/28 11:55:52;;;;;;;5.70;2.67;;;;;;;;;;5086530;28;20153;-48
2021/12/28 11:58:18;;;;;;;3.72;2.50;;;;;;;;;;5084410;28;20527;-46
2021/12/28 12:00:46;;;;;;;5.80;3.30;;;;;;;;;;5086370;28;20028;-47
2021/12/28 12:03:48;;;;;;;8.43;4.90;;;;;;;;;;5086150;28;20063;-48
2021/12/28 12:06:14;;;;;;;6.07;4.10;;;;;;;;;;5003759;28;20036;-46
2021/12/28 12:09:00;;;;;;;7.57;3.92;;;;;;;;;;5068062;28;20051;-50
2021/12/28 12:11:26;;;;;;;5.15;3.45;;;;;;;;;;5087633;28;20024;-47
2021/12/28 12:13:53;;;;;;;6.63;3.22;;;;;;;;;;5087822;28;20441;-46
2021/12/28 12:16:19;;;;;;;5.80;3.28;;;;;;;;;;5085539;28;20024;-46
2021/12/28 12:18:47;;;;;;;6.22;3.10;;;;;;;;;;5084825;28;20036;-46
2021/12/28 12:21:17;;;;;;;5.43;3.10;;;;;;;;;;5080601;28;20027;-50
2021/12/28 12:23:50;;;;;;;7.03;4.05;;;;;;;;;;5084100;28;20100;-49
2021/12/28 12:26:23;;;;;;;8.90;3.43;;;;;;;;;;5086973;28;20103;-47
2021/12/28 12:28:51;;;;;;;3.50;2.65;;;;;;;;;;5082979;28;20632;-47
2021/12/28 12:31:25;;;;;;;6.13;4.65;;;;;;;;;;5081437;28;20764;-50
2021/12/28 12:33:51;;;;;;;5.88;4.20;;;;;;;;;;5087189;28;20093;-48
2021/12/28 12:36:22;;;;;;;7.30;3.80;;;;;;;;;;5090062;28;20114;-47
2021/12/28 12:38:49;;;;;;;7.97;3.85;;;;;;;;;;5087239;28;20020;-49
2021/12/28 12:41:22;;;;;;;5.85;3.25;;;;;;;;;;5086991;28;20031;-45
2021/12/28 12:43:58;;;;;;;7.50;3.65;;;;;;;;;;5085507;28;20495;-49
2021/12/28 12:46:24;;;;;;;6.00;3.47;;;;;;;;;;5082315;28;20036;-49
2021/12/28 12:48:50;;;;;;;6.93;3.25;;;;;;;;;;5081030;28;20028;-48
2021/12/28 12:51:22;;;;;;;6.35;3.35;;;;;;;;;;5088931;28;20089;-48
2021/12/28 12:53:48;;;;;;;6.47;3.85;;;;;;;;;;5078497;28;20489;-48
2021/12/28 12:56:15;;;;;;;6.80;4.28;;;;;;;;;;5081454;28;20544;-48
2021/12/28 12:58:45;;;;;;;6.55;3.88;;;;;;;;;;5087261;28;20028;-46
2021/12/28 13:01:36;;;;;;;4.43;3.65;;;;;;;;;;5082853;28;20032;-45
2021/12/28 13:04:02;;;;;;;6.18;3.42;;;;;;;;;;5067574;28;20810;-49
2021/12/28 13:06:41;;;;;;;5.55;3.03;;;;;;;;;;5069183;28;20074;-48
2021/12/28 13:09:11;;;;;;;6.40;2.80;;;;;;;;;;5085991;28;20036;-49
2021/12/28 13:11:38;;;;;;;5.50;2.90;;;;;;;;;;5085217;28;20419;-49
2021/12/28 13:14:04;;;;;;;10.88;6.95;;;;;;;;;;5087346;28;20020;-49
2021/12/28 13:16:31;;;;;;;9.05;5.68;;;;;;;;;;5086747;28;20129;-49
2021/12/28 13:19:11;;;;;;;10.20;4.93;;;;;;;;;;5087009;28;20064;-50
2021/12/28 13:21:38;;;;;;;6.45;3.80;;;;;;;;;;5087460;28;20067;-46
2021/12/28 13:24:07;;;;;;;10.07;3.42;;;;;;;;;;5087601;28;20024;-46
2021/12/28 13:26:46;;;;;;;4.88;2.80;;;;;;;;;;5066555;28;20403;-45
2021/12/28 13:29:22;;;;;;;5.60;3.00;;;;;;;;;;5065744;28;20153;-47
2021/12/28 13:31:48;;;;;;;3.80;2.50;;;;;;;;;;5066577;28;20040;-48
2021/12/28 13:34:14;;;;;;;4.55;2.80;;;;;;;;;;5064399;28;20024;-46
2021/12/28 13:36:50;;;;;;;4.00;2.42;;;;;;;;;;5086542;28;20024;-46
2021/12/28 13:39:16;;;;;;;6.10;2.95;;;;;;;;;;5090829;28;20130;-46
2021/12/28 13:41:53;;;;;;;4.53;2.63;;;;;;;;;;5097368;28;20032;-46
2021/12/28 13:44:19;;;;;;;5.30;2.28;;;;;;;;;;5067624;28;20035;-48
2021/12/28 13:46:45;;;;;;;4.25;2.35;;;;;;;;;;5086406;28;20451;-48
2021/12/28 13:49:15;;;;;;;6.80;2.30;;;;;;;;;;5086102;28;20032;-47
2021/12/28 13:51:41;;;;;;;3.63;2.35;;;;;;;;;;5085833;28;20040;-48
2021/12/28 13:54:08;;;;;;;6.88;2.33;;;;;;;;;;5071741;28;20028;-47
2021/12/28 13:56:38;;;;;;;3.83;2.45;;;;;;;;;;5098112;28;20024;-47
2021/12/28 13:59:13;;;;;;;6.68;2.80;;;;;;;;;;5099838;28;20028;-45
2021/12/28 14:01:43;;;;;;;3.40;2.70;;;;;;;;;;5106629;28;20050;-45
2021/12/28 14:04:18;;;;;;;5.93;2.75;;;;;;;;;;5099649;28;20149;-46
2021/12/28 14:06:46;;;;;;;6.32;3.22;;;;;;;;;;5084602;28;20031;-45
2021/12/28 14:09:16;;;;;;;5.57;2.85;;;;;;;;;;5092856;28;20070;-50
2021/12/28 14:11:50;;;;;;;6.88;3.33;;;;;;;;;;5064602;28;20028;-46
2021/12/28 14:14:17;;;;;;;5.75;2.50;;;;;;;;;;5065989;28;20379;-47
2021/12/28 14:17:04;;;;;;;3.78;2.35;;;;;;;;;;5081254;28;20044;-47
2021/12/28 14:19:31;;;;;;;4.93;2.22;;;;;;;;;;5068421;28;20167;-46
2021/12/28 14:21:58;;;;;;;5.63;2.35;;;;;;;;;;5069694;28;20160;-47
2021/12/28 14:24:31;;;;;;;4.28;2.17;;;;;;;;;;5095578;28;20023;-47
2021/12/28 14:26:57;;;;;;;3.17;2.00;;;;;;;;;;5091652;28;20039;-47
2021/12/28 14:29:25;;;;;;;2.45;1.95;;;;;;;;;;5080552;28;20383;-46
2021/12/28 14:31:52;;;;;;;4.75;1.98;;;;;;;;;;5091767;28;20032;-46
2021/12/28 14:34:35;;;;;;;2.90;2.05;;;;;;;;;;5067277;28;20036;-46
2021/12/28 14:37:03;;;;;;;4.03;1.90;;;;;;;;;;5084367;28;20051;-44
2021/12/28 14:39:34;;;;;;;5.03;2.30;;;;;;;;;;5085535;28;20056;-44
2021/12/28 14:42:14;;;;;;;3.85;2.20;;;;;;;;;;5087089;28;20604;-45
2021/12/28 14:44:41;;;;;;;4.93;1.90;;;;;;;;;;5086629;28;20407;-49
2021/12/28 14:47:36;;;;;;;3.13;2.00;;;;;;;;;;5089369;28;20077;-48